Time;durP1;ratioP1;P1;durP2;ratioP2;P2;SDS_P1;SDS_P2;PMS_P1;PMS_P2;Temp;Humidity;BMP_temperature;BMP_pressure;BME280_temperature;BME280_humidity;BME280_pressure;Samples;Min_cycle;Max_cycle;Signal;HPM_P1;HPM_P2
2022/08/22 00:01:23;;;;;;;2.35;1.83;;;22.60;99.90;;;;;;5029121;28;20112;-64
2022/08/22 00:03:49;;;;;;;2.20;1.80;;;22.70;99.90;;;;;;5033741;28;20029;-64
2022/08/22 00:06:17;;;;;;;2.75;1.90;;;22.80;99.90;;;;;;5033190;28;20525;-64
2022/08/22 00:09:01;;;;;;;2.17;1.80;;;22.50;99.90;;;;;;5033884;28;20038;-63
2022/08/22 00:11:42;;;;;;;2.95;2.20;;;22.90;99.90;;;;;;5033587;28;20034;-64
2022/08/22 00:14:22;;;;;;;2.22;1.98;;;22.60;99.90;;;;;;5033391;28;20181;-64
2022/08/22 00:17:01;;;;;;;2.47;2.10;;;22.70;99.90;;;;;;5033160;28;20144;-63
2022/08/22 00:19:40;;;;;;;2.80;1.92;;;22.70;99.90;;;;;;5033400;28;20160;-64
2022/08/22 00:22:06;;;;;;;3.60;2.22;;;22.90;99.90;;;;;;5048564;28;20120;-64
2022/08/22 00:24:45;;;;;;;2.53;1.88;;;22.60;99.90;;;;;;5053123;28;20107;-64
2022/08/22 00:27:36;;;;;;;3.17;2.00;;;22.70;99.90;;;;;;5053284;28;20067;-64
2022/08/22 00:30:12;;;;;;;3.45;1.98;;;22.80;99.90;;;;;;5092235;28;20070;-64
2022/08/22 00:32:52;;;;;;;3.63;2.10;;;22.50;99.90;;;;;;5095810;28;20016;-63
2022/08/22 00:36:02;;;;;;;3.47;2.22;;;22.70;99.90;;;;;;5095127;28;20032;-63
2022/08/22 00:38:33;;;;;;;2.47;1.98;;;22.70;99.90;;;;;;5072749;28;20029;-63
2022/08/22 00:41:25;;;;;;;2.55;1.83;;;22.50;99.90;;;;;;5072984;28;20514;-63
2022/08/22 00:43:56;;;;;;;2.72;1.95;;;22.50;99.90;;;;;;5070446;28;20122;-63
2022/08/22 00:46:39;;;;;;;2.92;2.10;;;22.50;99.90;;;;;;5072897;28;20538;-63
2022/08/22 00:49:26;;;;;;;2.33;2.08;;;22.50;99.90;;;;;;5072205;28;20496;-64
2022/08/22 00:52:06;;;;;;;2.22;2.03;;;22.50;99.90;;;;;;5073011;28;20432;-64
2022/08/22 00:54:44;;;;;;;2.95;2.13;;;22.60;99.90;;;;;;5073428;28;20580;-64
2022/08/22 00:57:28;;;;;;;2.00;1.80;;;22.90;99.90;;;;;;5072647;28;20447;-64
2022/08/22 01:00:18;;;;;;;2.25;2.00;;;22.60;99.90;;;;;;5072652;28;20028;-64
2022/08/22 01:02:49;;;;;;;3.58;2.30;;;22.70;99.90;;;;;;5055493;28;20040;-64
2022/08/22 01:05:46;;;;;;;2.78;1.77;;;22.70;99.90;;;;;;5072391;28;20059;-64
2022/08/22 01:08:12;;;;;;;2.60;2.22;;;22.40;99.90;;;;;;5032382;28;20049;-64
2022/08/22 01:10:55;;;;;;;2.20;2.00;;;22.60;99.90;;;;;;5033020;28;20418;-64
2022/08/22 01:13:36;;;;;;;2.47;1.98;;;22.70;99.90;;;;;;5032096;28;20065;-63
2022/08/22 01:16:33;;;;;;;2.97;2.20;;;22.40;99.90;;;;;;5032910;28;20561;-64
2022/08/22 01:19:18;;;;;;;3.10;2.05;;;22.30;99.90;;;;;;5031745;28;20483;-64
2022/08/22 01:21:58;;;;;;;2.35;1.80;;;22.30;99.90;;;;;;5032200;28;20036;-64
2022/08/22 01:24:36;;;;;;;1.90;1.80;;;22.30;99.90;;;;;;5031920;28;20466;-64
2022/08/22 01:27:07;;;;;;;2.67;1.90;;;22.60;99.90;;;;;;5049149;28;20025;-63
2022/08/22 01:30:13;;;;;;;2.15;1.95;;;22.60;99.90;;;;;;5032209;28;20137;-64
2022/08/22 01:32:56;;;;;;;2.45;2.00;;;22.30;99.90;;;;;;5032003;28;20089;-64
2022/08/22 01:36:00;;;;;;;3.42;2.25;;;22.70;99.90;;;;;;5032226;28;20025;-64
2022/08/22 01:38:32;;;;;;;2.30;2.10;;;22.50;99.90;;;;;;4994669;28;20042;-64
2022/08/22 01:41:19;;;;;;;3.25;1.98;;;22.60;99.90;;;;;;5012163;28;20025;-64
2022/08/22 01:43:53;;;;;;;2.47;2.03;;;22.50;99.90;;;;;;5014961;28;20041;-63
2022/08/22 01:46:47;;;;;;;3.08;2.25;;;22.60;99.90;;;;;;5031384;28;20037;-64
2022/08/22 01:49:25;;;;;;;2.78;2.28;;;22.50;99.90;;;;;;5031636;28;20041;-64
2022/08/22 01:52:13;;;;;;;3.15;2.00;;;22.30;99.90;;;;;;5031712;28;20032;-64
2022/08/22 01:54:57;;;;;;;3.03;2.30;;;22.40;99.90;;;;;;5031803;28;20513;-64
2022/08/22 01:57:25;;;;;;;2.90;2.13;;;22.50;99.90;;;;;;5032162;28;20037;-63
2022/08/22 01:59:55;;;;;;;2.72;2.33;;;22.40;99.90;;;;;;5031533;28;20096;-64
2022/08/22 02:02:51;;;;;;;2.60;2.30;;;22.50;99.90;;;;;;5030936;28;20038;-63
2022/08/22 02:05:35;;;;;;;3.00;2.38;;;22.60;99.90;;;;;;5031535;28;20063;-63
2022/08/22 02:08:26;;;;;;;3.58;2.47;;;22.50;99.90;;;;;;5031374;28;20034;-64
2022/08/22 02:10:56;;;;;;;3.58;2.50;;;22.50;99.90;;;;;;5031294;28;20041;-64
2022/08/22 02:13:58;;;;;;;2.80;2.30;;;22.70;99.90;;;;;;5031303;28;20112;-63
2022/08/22 02:16:29;;;;;;;3.65;2.35;;;22.40;99.90;;;;;;5072952;28;20400;-63
2022/08/22 02:19:04;;;;;;;3.22;2.15;;;22.40;99.90;;;;;;5073233;28;20021;-63
2022/08/22 02:22:14;;;;;;;3.72;2.45;;;22.50;99.90;;;;;;5073090;28;20056;-64
2022/08/22 02:25:03;;;;;;;3.42;2.30;;;22.20;99.90;;;;;;5070053;28;20432;-64
2022/08/22 02:27:57;;;;;;;3.47;2.50;;;22.50;99.90;;;;;;5070885;28;20444;-64
2022/08/22 02:30:43;;;;;;;;;;;22.30;99.90;;;;;;5070690;28;20047;-64
2022/08/22 02:33:21;;;;;;;4.43;2.70;;;22.50;99.90;;;;;;5056817;28;19909;-64
2022/08/22 02:36:03;;;;;;;4.35;2.58;;;22.50;99.90;;;;;;5071082;28;20037;-63
2022/08/22 02:39:01;;;;;;;4.53;2.70;;;22.30;99.90;;;;;;5070510;28;20028;-63
2022/08/22 02:42:04;;;;;;;4.03;2.83;;;22.30;99.90;;;;;;5070610;28;20060;-64
2022/08/22 02:44:40;;;;;;;4.55;2.95;;;22.50;99.90;;;;;;4990289;28;20440;-64
2022/08/22 02:47:08;;;;;;;2.97;2.45;;;22.20;99.90;;;;;;4991332;28;20549;-63
2022/08/22 02:49:47;;;;;;;3.95;2.70;;;22.50;99.90;;;;;;4991000;28;20057;-64
2022/08/22 02:52:30;;;;;;;4.07;2.58;;;22.40;99.90;;;;;;4991530;28;20491;-64
2022/08/22 02:55:07;;;;;;;2.97;2.47;;;22.30;99.90;;;;;;4991170;28;20053;-64
2022/08/22 02:57:42;;;;;;;4.07;2.70;;;22.60;99.90;;;;;;4991113;28;20864;-64
2022/08/22 03:00:20;;;;;;;4.18;2.70;;;22.50;99.90;;;;;;4990569;28;20076;-64
2022/08/22 03:02:55;;;;;;;4.55;2.70;;;22.40;99.90;;;;;;5010592;28;20111;-64
2022/08/22 03:05:51;;;;;;;4.47;2.60;;;22.30;99.90;;;;;;5010641;28;20025;-64
2022/08/22 03:08:22;;;;;;;4.53;2.60;;;22.30;99.90;;;;;;5010546;28;20032;-64
2022/08/22 03:11:06;;;;;;;4.95;2.65;;;22.40;99.90;;;;;;5010472;28;20045;-64
2022/08/22 03:13:36;;;;;;;;;;;22.40;99.90;;;;;;5010410;28;20033;-64
2022/08/22 03:16:31;;;;;;;4.78;2.92;;;22.20;99.90;;;;;;5010541;28;19906;-64
2022/08/22 03:19:02;;;;;;;5.30;2.90;;;22.20;99.90;;;;;;5010265;28;20100;-64
2022/08/22 03:21:47;;;;;;;6.55;2.85;;;22.30;99.90;;;;;;5056393;28;20078;-64
2022/08/22 03:24:34;;;;;;;3.72;2.40;;;22.50;99.90;;;;;;5072191;28;20086;-64
2022/08/22 03:27:22;;;;;;;4.15;2.70;;;22.50;99.90;;;;;;5072412;28;20363;-64
2022/08/22 03:30:14;;;;;;;6.30;2.80;;;22.00;99.90;;;;;;5071861;28;20029;-64
2022/08/22 03:32:54;;;;;;;4.10;2.58;;;22.10;99.90;;;;;;5070861;28;20047;-64
2022/08/22 03:35:28;;;;;;;4.85;2.67;;;22.10;99.90;;;;;;5072497;28;20033;-63
2022/08/22 03:38:12;;;;;;;5.32;2.97;;;22.20;99.90;;;;;;5072128;28;20052;-64
2022/08/22 03:40:50;;;;;;;;;;;22.40;99.90;;;;;;5072715;28;20082;-64
2022/08/22 03:43:35;;;;;;;5.60;2.90;;;22.50;99.90;;;;;;5071593;28;19905;-64
2022/08/22 03:46:38;;;;;;;3.97;2.45;;;22.50;99.90;;;;;;5072343;28;20033;-64
2022/08/22 03:49:25;;;;;;;5.18;2.58;;;22.40;99.90;;;;;;5072179;28;20044;-64
2022/08/22 03:52:13;;;;;;;4.93;2.63;;;22.50;99.90;;;;;;5071816;28;20473;-64
2022/08/22 03:55:01;;;;;;;5.43;2.67;;;22.10;99.90;;;;;;5069167;28;20044;-64
2022/08/22 03:57:56;;;;;;;4.85;2.72;;;22.40;99.90;;;;;;5071972;28;20078;-65
2022/08/22 04:00:53;;;;;;;4.82;2.63;;;22.30;99.90;;;;;;5071795;28;20021;-64
2022/08/22 04:04:01;;;;;;;5.05;2.63;;;22.50;99.90;;;;;;5071630;28;20027;-64
2022/08/22 04:07:05;;;;;;;4.28;2.65;;;22.40;99.90;;;;;;5071789;28;20043;-64
2022/08/22 04:09:51;;;;;;;4.70;2.58;;;22.40;99.90;;;;;;5049381;28;20068;-64
2022/08/22 04:12:56;;;;;;;4.57;2.58;;;22.20;99.90;;;;;;5048827;28;20040;-64
2022/08/22 04:15:51;;;;;;;4.00;2.40;;;22.30;99.90;;;;;;5049518;28;20541;-63
2022/08/22 04:18:17;;;;;;;4.65;2.58;;;22.30;99.90;;;;;;5049790;28;20079;-63
2022/08/22 04:20:51;;;;;;;3.58;2.53;;;22.20;99.90;;;;;;5049397;28;20084;-64
2022/08/22 04:24:04;;;;;;;4.70;2.20;;;22.30;99.90;;;;;;5049371;28;20115;-63
2022/08/22 04:26:42;;;;;;;4.75;2.30;;;22.20;99.90;;;;;;4989635;28;20054;-63
2022/08/22 04:29:16;;;;;;;4.40;2.28;;;22.20;99.90;;;;;;4990200;28;20062;-64
2022/08/22 04:32:15;;;;;;;5.43;2.80;;;22.30;99.90;;;;;;4990002;28;20093;-64
2022/08/22 04:34:47;;;;;;;4.55;2.40;;;22.20;99.90;;;;;;4988523;28;20550;-64
2022/08/22 04:37:45;;;;;;;3.20;2.05;;;22.10;99.90;;;;;;4989954;28;20054;-64
2022/08/22 04:40:27;;;;;;;4.03;2.20;;;22.40;99.90;;;;;;4982052;28;20038;-64
2022/08/22 04:43:23;;;;;;;5.50;2.50;;;22.20;99.90;;;;;;4994808;28;20041;-64
2022/08/22 04:45:48;;;;;;;5.15;2.55;;;22.10;99.90;;;;;;5009428;28;20049;-64
2022/08/22 04:48:22;;;;;;;3.80;2.20;;;22.20;99.90;;;;;;5012611;28;20525;-64
2022/08/22 04:50:59;;;;;;;3.97;2.20;;;22.40;99.90;;;;;;5013024;28;20446;-64
2022/08/22 04:53:30;;;;;;;4.25;2.22;;;22.20;99.90;;;;;;5013234;28;20022;-64
2022/08/22 04:56:21;;;;;;;4.80;2.50;;;22.40;99.90;;;;;;5013654;28;20033;-64
2022/08/22 04:59:08;;;;;;;3.83;2.28;;;22.50;99.90;;;;;;5074878;28;20028;-64
2022/08/22 05:01:45;;;;;;;4.32;2.25;;;22.20;99.90;;;;;;5074572;28;20034;-64
2022/08/22 05:04:20;;;;;;;3.65;2.22;;;22.20;99.90;;;;;;5074618;28;20033;-64
2022/08/22 05:06:53;;;;;;;2.83;2.00;;;22.30;99.90;;;;;;5074790;28;20040;-64
2022/08/22 05:09:25;;;;;;;2.87;2.10;;;22.30;99.90;;;;;;5074576;28;20504;-64
2022/08/22 05:11:56;;;;;;;3.80;2.30;;;22.20;99.90;;;;;;5074571;28;20233;-64
2022/08/22 05:14:44;;;;;;;3.50;2.20;;;22.40;99.90;;;;;;5074025;28;20032;-64
2022/08/22 05:17:14;;;;;;;4.13;2.03;;;22.50;99.90;;;;;;5074524;28;20554;-63
2022/08/22 05:19:44;;;;;;;4.20;2.28;;;22.20;99.90;;;;;;5074836;28;20021;-63
2022/08/22 05:22:18;;;;;;;2.33;1.60;;;22.50;99.90;;;;;;5074409;28;20485;-63
2022/08/22 05:24:47;;;;;;;4.85;1.90;;;22.20;99.90;;;;;;5073956;28;20393;-63
2022/08/22 05:27:27;;;;;;;3.13;1.50;;;22.30;99.90;;;;;;5074322;28;20059;-63
2022/08/22 05:30:01;;;;;;;2.60;1.50;;;22.20;99.90;;;;;;5074603;28;20087;-63
2022/08/22 05:32:32;;;;;;;2.35;1.40;;;22.50;99.90;;;;;;5074152;28;20051;-63
2022/08/22 05:35:00;;;;;;;2.80;1.50;;;22.40;99.90;;;;;;5074033;28;20033;-63
2022/08/22 05:37:46;;;;;;;2.65;1.38;;;22.50;99.90;;;;;;5074078;28;20097;-63
2022/08/22 05:40:30;;;;;;;2.00;1.20;;;22.50;99.90;;;;;;5090526;28;20107;-63
2022/08/22 05:42:57;;;;;;;1.50;1.15;;;22.40;99.90;;;;;;5094199;28;20046;-63
2022/08/22 05:45:25;;;;;;;3.13;1.30;;;22.30;99.90;;;;;;5094694;28;20032;-64
2022/08/22 05:48:17;;;;;;;2.05;1.17;;;22.30;99.90;;;;;;5094156;28;20036;-63
2022/08/22 05:51:03;;;;;;;1.48;1.20;;;22.20;99.90;;;;;;5090820;28;20048;-63
2022/08/22 05:53:39;;;;;;;2.17;1.35;;;22.40;99.90;;;;;;5093551;28;20103;-64
2022/08/22 05:56:21;;;;;;;2.53;1.00;;;22.40;99.90;;;;;;5093904;28;20035;-63
2022/08/22 05:58:54;;;;;;;1.95;1.00;;;22.30;99.90;;;;;;5092892;28;20424;-64
2022/08/22 06:01:24;;;;;;;1.55;0.98;;;22.30;99.90;;;;;;5093967;28;20538;-63
2022/08/22 06:03:57;;;;;;;1.77;1.00;;;22.30;99.90;;;;;;5093728;28;20469;-63
2022/08/22 06:06:25;;;;;;;2.15;1.17;;;22.50;99.90;;;;;;5093586;28;20028;-63
2022/08/22 06:09:01;;;;;;;1.92;1.10;;;22.40;99.90;;;;;;5093114;28;20086;-63
2022/08/22 06:11:50;;;;;;;1.17;1.00;;;22.80;99.90;;;;;;5093607;28;20499;-63
2022/08/22 06:14:21;;;;;;;1.55;0.90;;;22.40;99.90;;;;;;5089895;28;20492;-63
2022/08/22 06:17:10;;;;;;;0.98;0.88;;;22.60;99.90;;;;;;5093421;28;20028;-63
2022/08/22 06:19:40;;;;;;;1.13;0.90;;;22.90;99.90;;;;;;5093414;28;20050;-63
2022/08/22 06:22:07;;;;;;;1.00;0.90;;;22.70;99.90;;;;;;5093357;28;20048;-63
2022/08/22 06:24:36;;;;;;;1.88;1.00;;;22.60;99.90;;;;;;5093269;28;20464;-63
2022/08/22 06:27:10;;;;;;;1.27;0.80;;;22.60;99.90;;;;;;5093135;28;20081;-64
2022/08/22 06:29:43;;;;;;;0.80;0.80;;;22.70;99.90;;;;;;5093268;28;20024;-63
2022/08/22 06:32:13;;;;;;;1.73;0.98;;;22.90;99.90;;;;;;5093592;28;20020;-63
2022/08/22 06:34:43;;;;;;;2.50;0.80;;;22.80;99.90;;;;;;5093281;28;20396;-63
2022/08/22 06:37:16;;;;;;;1.52;1.00;;;23.10;99.90;;;;;;5092884;28;20016;-63
2022/08/22 06:39:47;;;;;;;1.08;0.90;;;23.00;99.90;;;;;;5093407;28;20032;-63
2022/08/22 06:42:37;;;;;;;0.93;0.80;;;23.00;99.90;;;;;;5093019;28;20099;-63
2022/08/22 06:45:10;;;;;;;0.98;0.80;;;23.70;99.90;;;;;;5092824;28;20048;-64
2022/08/22 06:47:47;;;;;;;;;;;23.90;99.90;;;;;;5093589;28;20427;-63
2022/08/22 06:50:26;;;;;;;3.65;0.88;;;23.40;99.90;;;;;;5092747;28;19935;-63
2022/08/22 06:53:16;;;;;;;1.90;0.93;;;23.50;99.90;;;;;;5092479;28;20488;-63
2022/08/22 06:55:48;;;;;;;1.52;0.80;;;23.90;99.90;;;;;;5093269;28;20023;-63
2022/08/22 06:58:26;;;;;;;1.30;0.80;;;24.80;99.90;;;;;;5092789;28;20123;-63
2022/08/22 07:00:55;;;;;;;2.10;1.02;;;24.20;99.90;;;;;;5092543;28;20051;-63
2022/08/22 07:03:39;;;;;;;1.65;0.80;;;24.30;99.90;;;;;;5092530;28;20028;-63
2022/08/22 07:06:05;;;;;;;1.92;1.15;;;24.30;99.90;;;;;;5092539;28;20542;-63
2022/08/22 07:08:33;;;;;;;1.23;0.73;;;24.20;99.90;;;;;;5092619;28;20032;-63
2022/08/22 07:11:28;;;;;;;1.15;0.82;;;25.40;99.90;;;;;;5092362;28;20044;-63
2022/08/22 07:14:10;;;;;;;0.75;0.70;;;25.00;99.90;;;;;;5092511;28;20019;-63
2022/08/22 07:16:41;;;;;;;1.58;0.80;;;24.40;99.90;;;;;;5092512;28;20024;-63
2022/08/22 07:19:12;;;;;;;0.85;0.80;;;24.60;99.90;;;;;;5092323;28;20496;-63
2022/08/22 07:21:46;;;;;;;1.25;0.90;;;24.50;99.90;;;;;;5091935;28;20024;-62
2022/08/22 07:24:17;;;;;;;3.67;0.93;;;24.10;99.90;;;;;;5092333;28;20099;-63
2022/08/22 07:26:50;;;;;;;2.25;0.80;;;24.00;99.90;;;;;;5092159;28;20051;-63
2022/08/22 07:29:26;;;;;;;1.80;0.98;;;24.20;99.90;;;;;;5092315;28;20036;-63
2022/08/22 07:31:52;;;;;;;1.55;0.90;;;24.30;99.90;;;;;;5092332;28;20023;-64
2022/08/22 07:34:21;;;;;;;1.08;0.80;;;25.30;99.90;;;;;;5091922;28;20032;-64
2022/08/22 07:37:19;;;;;;;1.70;0.80;;;25.30;99.90;;;;;;5092331;28;20016;-63
2022/08/22 07:40:04;;;;;;;0.82;0.75;;;25.50;99.90;;;;;;5092167;28;20042;-63
2022/08/22 07:42:39;;;;;;;1.95;0.90;;;25.50;99.90;;;;;;5092186;28;20056;-63
2022/08/22 07:45:23;;;;;;;6.32;1.50;;;25.30;99.90;;;;;;5092462;28;20082;-63
2022/08/22 07:48:04;;;;;;;6.72;1.50;;;25.30;99.90;;;;;;5092447;28;20510;-63
2022/08/22 07:50:34;;;;;;;13.07;2.08;;;25.00;99.90;;;;;;5091543;28;20036;-64
2022/08/22 07:53:28;;;;;;;4.38;1.15;;;24.80;99.90;;;;;;5092019;28;20027;-63
2022/08/22 07:55:55;;;;;;;4.88;1.45;;;24.80;99.90;;;;;;5091630;28;20480;-63
2022/08/22 07:58:24;;;;;;;3.58;1.40;;;24.70;99.90;;;;;;5091973;28;20035;-63
2022/08/22 08:00:51;;;;;;;4.82;1.20;;;24.80;99.90;;;;;;5092021;28;20473;-63
2022/08/22 08:03:20;;;;;;;5.18;1.30;;;24.40;99.90;;;;;;5091973;28;20504;-63
2022/08/22 08:05:46;;;;;;;8.40;1.25;;;24.50;99.90;;;;;;5091889;28;20027;-63
2022/08/22 08:08:20;;;;;;;5.20;1.33;;;24.40;99.90;;;;;;5091971;28;20553;-62
2022/08/22 08:10:49;;;;;;;4.25;1.00;;;24.50;99.90;;;;;;5092045;28;20122;-63
2022/08/22 08:13:22;;;;;;;1.95;1.10;;;24.20;99.90;;;;;;5092445;28;20036;-63
2022/08/22 08:15:49;;;;;;;2.77;1.00;;;24.10;99.90;;;;;;5091483;28;20116;-63
2022/08/22 08:18:20;;;;;;;3.17;1.30;;;24.00;99.90;;;;;;5089269;28;20166;-63
2022/08/22 08:21:34;;;;;;;3.78;1.20;;;24.40;99.90;;;;;;5091300;28;20366;-63
2022/08/22 08:24:01;;;;;;;2.08;1.00;;;25.40;99.90;;;;;;5091778;28;20023;-64
2022/08/22 08:26:38;;;;;;;2.55;1.10;;;25.80;99.90;;;;;;5094946;28;20035;-63
2022/08/22 08:29:07;;;;;;;1.98;0.93;;;26.10;99.90;;;;;;5093194;28;20032;-62
2022/08/22 08:31:39;;;;;;;2.55;1.00;;;26.20;99.90;;;;;;5095563;28;20028;-63
2022/08/22 08:34:11;;;;;;;3.20;0.90;;;26.40;99.90;;;;;;5095289;28;20012;-63
2022/08/22 08:36:49;;;;;;;2.38;0.85;;;26.20;99.90;;;;;;5095067;28;20027;-63
2022/08/22 08:39:34;;;;;;;1.27;0.70;;;26.20;99.90;;;;;;5095425;28;20477;-63
2022/08/22 08:42:21;;;;;;;1.10;0.82;;;25.90;99.90;;;;;;5094836;28;20020;-63
2022/08/22 08:44:57;;;;;;;1.55;0.70;;;25.90;99.90;;;;;;5094487;28;20032;-63
2022/08/22 08:47:47;;;;;;;0.85;0.65;;;25.80;99.90;;;;;;5094601;28;20047;-63
2022/08/22 08:50:39;;;;;;;1.58;0.70;;;25.90;99.90;;;;;;5091423;28;20043;-63
2022/08/22 08:53:23;;;;;;;2.63;0.70;;;25.90;99.90;;;;;;5094397;28;20116;-63
2022/08/22 08:56:11;;;;;;;1.13;0.77;;;26.00;99.90;;;;;;5092060;28;20028;-62
2022/08/22 08:58:40;;;;;;;0.77;0.60;;;25.70;99.90;;;;;;5092862;28;20473;-63
2022/08/22 09:01:39;;;;;;;2.05;0.70;;;25.70;99.90;;;;;;5095239;28;20136;-63
2022/08/22 09:04:16;;;;;;;1.70;0.60;;;25.70;99.90;;;;;;5095332;28;20476;-62
2022/08/22 09:07:06;;;;;;;1.20;0.60;;;25.40;99.90;;;;;;5095001;28;20024;-63
2022/08/22 09:09:52;;;;;;;0.60;0.60;;;25.70;99.90;;;;;;5091738;28;20047;-63
2022/08/22 09:12:38;;;;;;;1.63;0.63;;;25.80;99.90;;;;;;5069096;28;20040;-63
2022/08/22 09:15:25;;;;;;;0.82;0.60;;;25.50;99.90;;;;;;5071858;28;20064;-64
2022/08/22 09:17:53;;;;;;;1.52;0.63;;;25.60;99.90;;;;;;5070527;28;20103;-63
2022/08/22 09:20:45;;;;;;;0.52;0.43;;;25.40;99.90;;;;;;5069205;28;20127;-63
2022/08/22 09:23:16;;;;;;;1.83;0.50;;;25.60;99.90;;;;;;5070651;28;20669;-63
2022/08/22 09:26:21;;;;;;;2.10;0.57;;;25.50;99.90;;;;;;5066800;28;20040;-64
2022/08/22 09:28:56;;;;;;;2.33;0.70;;;25.40;99.90;;;;;;5068202;28;20413;-64
2022/08/22 09:31:27;;;;;;;1.30;0.60;;;25.00;99.90;;;;;;5070957;28;20032;-64
2022/08/22 09:33:57;;;;;;;1.40;0.50;;;24.90;99.90;;;;;;5071374;28;20028;-64
2022/08/22 09:36:51;;;;;;;0.93;0.60;;;25.00;99.90;;;;;;5070907;28;20032;-64
2022/08/22 09:39:32;;;;;;;1.73;0.50;;;24.70;99.90;;;;;;5069075;28;20151;-63
2022/08/22 09:42:01;;;;;;;1.08;0.70;;;24.70;99.90;;;;;;5071039;28;20016;-63
2022/08/22 09:44:44;;;;;;;2.15;0.70;;;24.80;99.90;;;;;;5066487;28;20468;-63
2022/08/22 09:47:15;;;;;;;0.55;0.50;;;24.90;99.90;;;;;;5060850;28;20433;-63
2022/08/22 09:50:02;;;;;;;1.33;0.70;;;24.80;99.90;;;;;;5059776;28;20545;-63
2022/08/22 09:52:55;;;;;;;1.48;0.70;;;24.80;99.90;;;;;;5062604;28;20534;-63
2022/08/22 09:55:48;;;;;;;2.90;0.85;;;24.80;99.90;;;;;;5060818;28;20025;-63
2022/08/22 09:58:32;;;;;;;2.03;0.80;;;25.00;99.90;;;;;;5063673;28;20023;-64
2022/08/22 10:01:22;;;;;;;1.50;0.80;;;24.80;99.90;;;;;;5055750;28;20036;-63
2022/08/22 10:04:13;;;;;;;1.67;0.80;;;24.80;99.90;;;;;;5061092;28;20028;-63
2022/08/22 10:07:02;;;;;;;1.80;0.80;;;25.10;99.90;;;;;;5033170;28;20037;-63
2022/08/22 10:09:40;;;;;;;1.75;0.90;;;24.80;99.90;;;;;;5036021;28;20063;-64
2022/08/22 10:12:14;;;;;;;2.35;0.85;;;24.70;99.90;;;;;;5059475;28;20520;-63
2022/08/22 10:14:50;;;;;;;4.60;0.88;;;25.00;99.90;;;;;;5072972;28;20377;-63
2022/08/22 10:17:35;;;;;;;1.63;0.80;;;24.80;99.90;;;;;;5073277;28;20484;-63
2022/08/22 10:20:05;;;;;;;1.13;0.70;;;24.70;99.90;;;;;;5073362;28;20032;-63
2022/08/22 10:22:30;;;;;;;3.90;0.90;;;25.00;99.90;;;;;;5073114;28;20067;-65
2022/08/22 10:25:08;;;;;;;4.72;0.95;;;24.70;99.90;;;;;;5073150;28;20048;-66
2022/08/22 10:27:55;;;;;;;4.78;1.20;;;25.20;99.90;;;;;;5073087;28;20024;-63
2022/08/22 10:30:32;;;;;;;5.93;1.02;;;25.50;99.90;;;;;;5072607;28;20110;-66
2022/08/22 10:33:13;;;;;;;3.70;1.13;;;25.40;99.90;;;;;;5072844;28;20024;-65
2022/08/22 10:35:57;;;;;;;1.65;1.10;;;25.60;99.90;;;;;;5072865;28;20103;-64
2022/08/22 10:38:30;;;;;;;5.85;1.20;;;25.90;99.90;;;;;;5071359;28;20082;-64
2022/08/22 10:41:07;;;;;;;5.23;2.03;;;26.00;99.90;;;;;;5052865;28;20083;-64
2022/08/22 10:43:44;;;;;;;4.28;2.50;;;26.30;99.90;;;;;;5054685;28;20355;-64
2022/08/22 10:46:18;;;;;;;5.00;2.28;;;26.50;99.90;;;;;;5092629;28;20032;-65
2022/08/22 10:48:57;;;;;;;6.35;2.13;;;26.20;99.90;;;;;;5092946;28;20051;-65
2022/08/22 10:51:28;;;;;;;6.50;2.45;;;26.20;99.90;;;;;;5092854;28;20493;-65
2022/08/22 10:54:25;;;;;;;6.63;2.25;;;26.30;99.90;;;;;;5092923;28;20020;-64
2022/08/22 10:57:14;;;;;;;4.90;1.88;;;26.30;99.90;;;;;;5092642;28;20511;-65
2022/08/22 10:59:48;;;;;;;4.10;1.45;;;25.80;99.90;;;;;;5088893;28;20051;-64
2022/08/22 11:02:44;;;;;;;4.85;1.60;;;26.20;99.90;;;;;;5092689;28;20055;-65
2022/08/22 11:05:36;;;;;;;3.28;1.20;;;26.10;99.90;;;;;;5093004;28;20038;-65
2022/08/22 11:08:39;;;;;;;2.95;1.30;;;26.20;99.90;;;;;;5092758;28;20504;-65
2022/08/22 11:11:24;;;;;;;2.07;1.20;;;26.00;99.90;;;;;;5092232;28;20036;-65
2022/08/22 11:14:08;;;;;;;3.40;1.27;;;26.40;99.90;;;;;;5089281;28;20094;-64
2022/08/22 11:16:53;;;;;;;2.08;1.25;;;26.60;99.90;;;;;;5090174;28;20095;-64
2022/08/22 11:19:43;;;;;;;1.98;1.05;;;26.70;99.90;;;;;;5077300;28;20020;-64
2022/08/22 11:22:47;;;;;;;2.30;1.33;;;26.20;99.90;;;;;;5089154;28;20016;-64
2022/08/22 11:25:13;;;;;;;;;;;26.50;99.90;;;;;;5068853;28;20397;-65
2022/08/22 11:27:56;;;;;;;3.03;1.10;;;26.80;99.90;;;;;;5069374;28;19904;-64
2022/08/22 11:30:27;;;;;;;3.05;1.30;;;26.70;99.90;;;;;;5069747;28;20036;-64
2022/08/22 11:33:11;;;;;;;4.18;1.55;;;26.40;99.90;;;;;;5069742;28;20038;-64
2022/08/22 11:35:53;;;;;;;4.03;1.23;;;27.10;99.90;;;;;;5069695;28;20070;-64
2022/08/22 11:38:41;;;;;;;3.13;1.30;;;27.20;99.90;;;;;;5069734;28;20052;-64
2022/08/22 11:41:42;;;;;;;3.30;1.30;;;27.10;99.90;;;;;;5069155;28;20032;-64
2022/08/22 11:44:17;;;;;;;4.57;1.38;;;26.80;99.90;;;;;;4989789;28;20049;-64
2022/08/22 11:46:46;;;;;;;5.03;1.40;;;27.10;99.90;;;;;;4988325;28;20131;-64
2022/08/22 11:49:41;;;;;;;2.45;1.30;;;26.90;99.90;;;;;;4990837;28;20038;-64
2022/08/22 11:52:25;;;;;;;4.57;1.50;;;27.30;99.90;;;;;;4990368;28;20038;-64
2022/08/22 11:55:06;;;;;;;4.43;1.25;;;27.00;99.90;;;;;;4990329;28;20049;-64
2022/08/22 11:57:37;;;;;;;4.68;1.30;;;26.90;99.90;;;;;;4992034;28;20037;-64
2022/08/22 12:00:32;;;;;;;3.30;1.38;;;26.80;99.90;;;;;;4998774;28;20036;-64
2022/08/22 12:03:36;;;;;;;7.85;1.42;;;26.80;99.90;;;;;;5013812;28;20037;-65
2022/08/22 12:06:40;;;;;;;4.53;1.48;;;26.50;99.90;;;;;;5013963;28;20537;-64
2022/08/22 12:09:15;;;;;;;3.70;1.38;;;26.50;99.90;;;;;;5013423;28;20084;-64
2022/08/22 12:11:41;;;;;;;4.35;1.55;;;26.30;99.90;;;;;;5013503;28;20037;-64
2022/08/22 12:14:55;;;;;;;4.50;1.55;;;26.20;99.90;;;;;;5014076;28;20088;-64
2022/08/22 12:17:21;;;;;;;3.28;1.40;;;26.00;99.90;;;;;;4974654;28;20031;-65
2022/08/22 12:19:54;;;;;;;3.47;1.50;;;25.90;99.90;;;;;;4976058;28;20041;-63
2022/08/22 12:22:37;;;;;;;2.53;1.20;;;26.00;99.90;;;;;;5053207;28;20108;-64
2022/08/22 12:25:14;;;;;;;4.53;1.52;;;26.10;99.90;;;;;;5052767;28;20063;-65
2022/08/22 12:27:55;;;;;;;9.88;2.00;;;25.50;99.90;;;;;;5053088;28;20037;-64
2022/08/22 12:30:38;;;;;;;6.60;1.80;;;25.50;99.90;;;;;;5052934;28;20045;-65
2022/08/22 12:33:21;;;;;;;3.28;1.40;;;25.80;99.90;;;;;;5055958;28;20064;-65
2022/08/22 12:35:52;;;;;;;4.72;1.80;;;25.70;99.90;;;;;;5073360;28;20028;-65
2022/08/22 12:38:44;;;;;;;4.78;1.70;;;25.50;99.90;;;;;;5072612;28;20119;-65
2022/08/22 12:41:30;;;;;;;3.70;1.73;;;25.50;99.90;;;;;;5052433;28;20033;-65
2022/08/22 12:44:25;;;;;;;3.30;1.60;;;25.30;99.90;;;;;;5051692;28;20048;-67
2022/08/22 12:47:09;;;;;;;2.60;1.50;;;25.20;99.90;;;;;;4997774;28;20046;-65
2022/08/22 12:50:01;;;;;;;3.80;1.48;;;25.30;99.90;;;;;;4993462;28;20034;-65
2022/08/22 12:52:29;;;;;;;4.32;1.75;;;25.30;99.90;;;;;;4991038;28;20646;-65
2022/08/22 12:54:55;;;;;;;4.18;1.60;;;25.50;99.90;;;;;;4993076;28;20539;-65
2022/08/22 12:57:44;;;;;;;5.60;1.52;;;25.30;99.90;;;;;;4993362;28;20045;-65
2022/08/22 13:00:29;;;;;;;3.55;1.52;;;25.40;99.90;;;;;;4993332;28;20033;-65
2022/08/22 13:02:56;;;;;;;3.17;1.60;;;25.30;99.90;;;;;;4993250;28;20030;-65
2022/08/22 13:05:26;;;;;;;4.47;1.65;;;25.40;99.90;;;;;;4993182;28;20038;-65
2022/08/22 13:07:56;;;;;;;4.50;1.40;;;25.60;99.90;;;;;;4992436;28;20573;-65
2022/08/22 13:10:31;;;;;;;5.50;1.50;;;25.40;99.90;;;;;;4992848;28;20637;-64
2022/08/22 13:12:58;;;;;;;4.07;1.48;;;25.40;99.90;;;;;;4992971;28;20030;-65
2022/08/22 13:15:34;;;;;;;3.58;1.40;;;25.70;99.90;;;;;;4992916;28;20069;-66
2022/08/22 13:18:11;;;;;;;5.07;1.55;;;25.60;99.90;;;;;;5002962;28;20058;-65
2022/08/22 13:20:40;;;;;;;6.47;1.60;;;25.70;99.90;;;;;;5012695;28;20048;-64
2022/08/22 13:23:19;;;;;;;6.90;1.95;;;25.70;99.90;;;;;;5034414;28;20425;-64
2022/08/22 13:26:21;;;;;;;5.32;1.80;;;25.80;99.90;;;;;;5094538;28;20020;-64
2022/08/22 13:28:54;;;;;;;2.97;1.48;;;25.60;99.90;;;;;;5071777;28;20043;-64
2022/08/22 13:31:29;;;;;;;6.15;1.77;;;25.50;99.90;;;;;;5072356;28;20524;-64
2022/08/22 13:34:05;;;;;;;4.13;1.73;;;25.70;99.90;;;;;;5071974;28;20477;-65
2022/08/22 13:36:40;;;;;;;3.55;1.73;;;25.50;99.90;;;;;;5072261;28;20036;-64
2022/08/22 13:39:24;;;;;;;5.28;1.63;;;25.60;99.90;;;;;;5071715;28;20041;-64
2022/08/22 13:41:59;;;;;;;2.05;1.13;;;25.60;99.90;;;;;;5071670;28;20397;-65
2022/08/22 13:44:43;;;;;;;3.17;1.10;;;25.70;99.90;;;;;;5071601;28;20105;-65
2022/08/22 13:47:14;;;;;;;3.58;1.20;;;25.60;99.90;;;;;;5071769;28;20040;-64
2022/08/22 13:49:47;;;;;;;2.17;1.10;;;25.50;99.90;;;;;;5071662;28;20040;-64
2022/08/22 13:52:27;;;;;;;1.92;1.17;;;25.60;99.90;;;;;;5071302;28;20423;-64
2022/08/22 13:54:56;;;;;;;2.50;1.20;;;25.70;99.90;;;;;;5071623;28;20042;-64
2022/08/22 13:57:27;;;;;;;2.03;1.15;;;25.40;99.90;;;;;;5071627;28;20112;-64